createdAt,value
2023-04-09T00:00:31.367Z,13.50
2023-04-09T00:03:23.150Z,14.10
2023-04-09T00:05:55.605Z,15.50
2023-04-09T00:08:25.386Z,15.50
2023-04-09T00:10:56.256Z,14.10
2023-04-09T00:13:38.428Z,14.70
2023-04-09T00:16:09.232Z,15.00
2023-04-09T00:18:38.526Z,15.00
2023-04-09T00:21:09.205Z,15.00
2023-04-09T00:23:39.276Z,14.80
2023-04-09T00:26:10.871Z,13.00
2023-04-09T00:28:41.638Z,13.10
2023-04-09T00:31:11.735Z,13.60
2023-04-09T00:33:41.616Z,11.20
2023-04-09T00:36:11.991Z,13.20
2023-04-09T00:38:42.687Z,12.30
2023-04-09T00:41:12.576Z,15.00
2023-04-09T00:43:43.334Z,14.30
2023-04-09T00:46:13.408Z,13.40
2023-04-09T00:48:44.193Z,14.80
2023-04-09T00:51:14.656Z,13.70
2023-04-09T00:53:44.465Z,15.50
2023-04-09T00:56:15.959Z,14.00
2023-04-09T00:58:45.922Z,14.90
2023-04-09T01:01:16.062Z,15.00
2023-04-09T01:03:47.157Z,14.30
2023-04-09T01:06:38.654Z,13.50
2023-04-09T01:09:26.176Z,12.70
2023-04-09T01:12:13.175Z,13.90
2023-04-09T01:15:09.414Z,13.00
2023-04-09T01:17:48.361Z,17.50
2023-04-09T01:20:36.515Z,15.60
2023-04-09T01:23:20.711Z,15.70
2023-04-09T01:25:58.593Z,14.50
2023-04-09T01:28:36.048Z,16.50
2023-04-09T01:31:15.692Z,14.30
2023-04-09T01:33:46.417Z,14.70
2023-04-09T01:36:18.133Z,14.90
2023-04-09T01:38:49.480Z,15.00
2023-04-09T01:41:22.409Z,14.20
2023-04-09T01:43:53.671Z,13.80
2023-04-09T01:46:25.926Z,15.30
2023-04-09T01:48:57.321Z,15.30
2023-04-09T01:51:27.743Z,15.30
2023-04-09T01:53:57.230Z,14.30
2023-04-09T01:56:26.746Z,14.20
2023-04-09T01:58:56.083Z,14.00
2023-04-09T02:01:39.030Z,15.60
2023-04-09T02:04:21.254Z,13.20
2023-04-09T02:07:03.146Z,13.70
2023-04-09T02:09:37.092Z,14.50
2023-04-09T02:12:13.093Z,14.60
2023-04-09T02:14:46.541Z,12.70
2023-04-09T02:17:16.483Z,12.70
2023-04-09T02:19:48.096Z,13.10
2023-04-09T02:22:17.999Z,13.70
2023-04-09T02:24:47.800Z,12.30
2023-04-09T02:27:17.498Z,11.60
2023-04-09T02:29:47.914Z,12.90
2023-04-09T02:32:17.951Z,13.90
2023-04-09T02:34:48.006Z,13.70
2023-04-09T02:37:20.043Z,12.60
2023-04-09T02:39:50.624Z,12.60
2023-04-09T02:42:20.732Z,13.40
2023-04-09T02:44:50.703Z,12.90
2023-04-09T02:47:21.200Z,13.90
2023-04-09T02:49:52.207Z,14.20
2023-04-09T02:52:25.011Z,12.40
2023-04-09T02:54:54.995Z,13.20
2023-04-09T02:57:24.666Z,12.10
2023-04-09T02:59:56.134Z,13.70
2023-04-09T03:02:27.240Z,12.80
2023-04-09T03:04:57.535Z,13.90
2023-04-09T03:07:27.053Z,13.30
2023-04-09T03:09:57.623Z,13.30
2023-04-09T03:12:27.865Z,13.50
2023-04-09T03:14:57.016Z,13.50
2023-04-09T03:17:27.665Z,14.00
2023-04-09T03:19:59.106Z,13.90
2023-04-09T03:22:39.884Z,14.40
2023-04-09T03:25:30.017Z,13.40
2023-04-09T03:28:00.397Z,14.40
2023-04-09T03:30:39.242Z,13.70
2023-04-09T03:33:08.597Z,13.60
2023-04-09T03:35:47.643Z,12.90
2023-04-09T03:38:20.445Z,12.80
2023-04-09T03:40:52.574Z,12.70
2023-04-09T03:43:22.268Z,12.00
2023-04-09T03:45:54.544Z,11.80
2023-04-09T03:48:27.686Z,12.20
2023-04-09T03:50:59.477Z,13.50
2023-04-09T03:53:36.346Z,13.10
2023-04-09T03:56:09.919Z,12.40
2023-04-09T03:58:40.139Z,11.20
2023-04-09T04:01:11.790Z,14.00
2023-04-09T04:03:49.272Z,14.90
2023-04-09T04:06:26.909Z,14.10
2023-04-09T04:09:16.053Z,12.80
2023-04-09T04:12:08.527Z,12.20
2023-04-09T04:15:02.530Z,12.40
2023-04-09T04:17:37.202Z,11.40
2023-04-09T04:20:15.146Z,12.60
2023-04-09T04:22:56.685Z,11.90
2023-04-09T04:25:26.714Z,11.80
2023-04-09T04:27:58.115Z,12.90
2023-04-09T04:30:35.937Z,12.00
2023-04-09T04:33:09.170Z,13.40
2023-04-09T04:35:46.360Z,12.50
2023-04-09T04:38:31.570Z,12.60
2023-04-09T04:41:02.979Z,13.80
2023-04-09T04:43:34.319Z,13.80
2023-04-09T04:46:04.233Z,14.90
2023-04-09T04:48:33.722Z,14.20
2023-04-09T04:51:05.006Z,11.70
2023-04-09T04:53:42.458Z,14.10
2023-04-09T04:56:16.968Z,14.50
2023-04-09T04:59:01.288Z,13.80
2023-04-09T05:01:35.030Z,13.70
2023-04-09T05:04:05.925Z,13.30
2023-04-09T05:09:10.777Z,12.50
2023-04-09T05:11:45.972Z,13.10
2023-04-09T05:14:18.834Z,14.40
2023-04-09T05:16:49.133Z,13.00
2023-04-09T05:19:19.603Z,14.10
2023-04-09T05:21:49.524Z,13.00
2023-04-09T05:24:24.223Z,12.60
2023-04-09T05:26:55.674Z,12.20
2023-04-09T05:29:25.665Z,13.20
2023-04-09T05:31:57.051Z,12.40
2023-04-09T05:34:34.472Z,13.40
2023-04-09T05:37:04.410Z,13.60
2023-04-09T05:39:38.456Z,12.00
2023-04-09T05:42:08.271Z,12.60
2023-04-09T05:44:55.152Z,12.90
2023-04-09T05:47:25.503Z,12.50
2023-04-09T05:50:04.806Z,11.30
2023-04-09T05:52:34.517Z,13.30
2023-04-09T05:55:07.350Z,12.90
2023-04-09T05:58:06.289Z,13.70
2023-04-09T06:00:35.683Z,14.50
2023-04-09T06:03:07.240Z,12.90
2023-04-09T06:05:36.698Z,13.00
2023-04-09T06:08:07.097Z,13.50
2023-04-09T06:10:36.917Z,12.80
2023-04-09T06:13:06.867Z,13.50
2023-04-09T06:15:39.363Z,12.90
2023-04-09T06:18:09.781Z,13.00
2023-04-09T06:20:39.346Z,13.30
2023-04-09T06:23:08.932Z,13.40
2023-04-09T06:25:39.530Z,13.60
2023-04-09T06:28:09.121Z,12.60
2023-04-09T06:30:38.421Z,13.60
2023-04-09T06:33:08.337Z,13.60
2023-04-09T06:35:38.419Z,13.00
2023-04-09T06:38:10.892Z,14.20
2023-04-09T06:40:41.102Z,13.50
2023-04-09T06:43:10.460Z,13.70
2023-04-09T06:45:48.372Z,12.90
2023-04-09T06:48:18.218Z,13.80
2023-04-09T06:50:48.291Z,12.80
2023-04-09T06:53:18.691Z,14.00
2023-04-09T06:55:48.176Z,14.20
2023-04-09T06:58:18.411Z,13.20
2023-04-09T07:00:50.005Z,14.20
2023-04-09T07:03:20.590Z,14.00
2023-04-09T07:05:50.958Z,14.00
2023-04-09T07:08:20.487Z,13.50
2023-04-09T07:10:51.584Z,14.70
2023-04-09T07:15:58.657Z,14.00
2023-04-09T07:18:28.436Z,13.90
2023-04-09T07:21:03.370Z,14.30
2023-04-09T07:23:37.506Z,15.20
2023-04-09T07:26:07.652Z,13.20
2023-04-09T07:28:36.994Z,14.70
2023-04-09T07:31:08.676Z,14.00
2023-04-09T07:33:39.108Z,12.40
2023-04-09T07:36:09.136Z,15.10
2023-04-09T07:38:38.512Z,14.10
2023-04-09T07:41:12.405Z,16.20
2023-04-09T07:43:44.857Z,13.80
2023-04-09T07:46:21.354Z,15.00
2023-04-09T07:48:50.837Z,13.60
2023-04-09T07:51:21.544Z,13.80
2023-04-09T07:53:51.049Z,13.90
2023-04-09T07:56:21.418Z,11.90
2023-04-09T07:58:55.036Z,12.60
2023-04-09T08:01:26.805Z,13.50
2023-04-09T08:03:56.389Z,13.90
2023-04-09T08:06:27.715Z,13.40
2023-04-09T08:08:59.084Z,13.80
2023-04-09T08:11:28.317Z,13.60
2023-04-09T08:13:58.039Z,13.80
2023-04-09T08:16:28.527Z,16.10
2023-04-09T08:18:58.078Z,15.50
2023-04-09T08:21:28.311Z,14.50
2023-04-09T08:24:02.146Z,15.70
2023-04-09T08:26:32.782Z,15.40
2023-04-09T08:29:02.585Z,15.10
2023-04-09T08:31:32.258Z,16.30
2023-04-09T08:34:01.561Z,15.30
2023-04-09T08:36:34.771Z,16.20
2023-04-09T08:39:04.401Z,15.40
2023-04-09T08:41:37.079Z,15.10
2023-04-09T08:44:07.037Z,16.70
2023-04-09T08:46:46.835Z,17.00
2023-04-09T08:49:16.655Z,15.10
2023-04-09T08:51:52.068Z,16.40
2023-04-09T08:55:07.477Z,16.90
2023-04-09T08:57:41.277Z,18.40
2023-04-09T09:00:12.703Z,17.70
2023-04-09T09:03:06.013Z,17.80
2023-04-09T09:05:41.452Z,14.30
2023-04-09T09:08:14.724Z,15.50
2023-04-09T09:10:48.217Z,16.40
2023-04-09T09:13:19.432Z,16.80
2023-04-09T09:15:53.511Z,15.80
2023-04-09T09:18:47.719Z,15.20
2023-04-09T09:21:23.598Z,15.10
2023-04-09T09:23:53.733Z,14.40
2023-04-09T09:26:31.144Z,15.20
2023-04-09T09:29:06.212Z,14.70
2023-04-09T09:31:51.524Z,10.30
2023-04-09T09:34:24.222Z,14.50
2023-04-09T09:36:57.132Z,14.60
2023-04-09T09:39:46.903Z,14.50
2023-04-09T09:42:24.782Z,15.60
2023-04-09T09:44:55.827Z,14.40
2023-04-09T09:47:25.747Z,13.70
2023-04-09T09:49:56.208Z,13.80
2023-04-09T09:52:27.622Z,14.10
2023-04-09T09:55:05.665Z,13.90
2023-04-09T09:57:40.237Z,13.50
2023-04-09T10:00:14.582Z,13.00
2023-04-09T10:03:00.058Z,13.10
2023-04-09T10:05:31.255Z,13.60
2023-04-09T10:08:03.313Z,12.90
2023-04-09T10:10:34.125Z,12.30
2023-04-09T10:13:07.863Z,11.90
2023-04-09T10:15:37.742Z,12.40
2023-04-09T10:18:14.728Z,12.50
2023-04-09T10:20:59.600Z,12.30
2023-04-09T10:23:52.292Z,12.40
2023-04-09T10:26:23.572Z,13.20
2023-04-09T10:29:14.843Z,11.90
2023-04-09T10:32:08.902Z,12.90
2023-04-09T10:34:42.500Z,11.80
2023-04-09T10:37:17.486Z,11.60
2023-04-09T10:39:49.229Z,13.20
2023-04-09T10:42:31.049Z,12.00
2023-04-09T10:45:15.265Z,11.90
2023-04-09T10:47:47.015Z,11.50
2023-04-09T10:50:24.119Z,11.30
2023-04-09T10:52:59.997Z,11.60
2023-04-09T10:55:39.306Z,11.10
2023-04-09T10:58:35.376Z,12.40
2023-04-09T11:01:17.827Z,10.70
2023-04-09T11:06:33.364Z,9.80
2023-04-09T11:09:17.615Z,10.70
2023-04-09T11:12:28.758Z,11.60
2023-04-09T11:15:34.612Z,12.00
2023-04-09T11:18:28.252Z,11.60
2023-04-09T11:21:08.224Z,11.30
2023-04-09T11:23:40.790Z,11.30
2023-04-09T11:26:10.874Z,10.70
2023-04-09T11:28:43.621Z,9.30
2023-04-09T11:31:32.801Z,11.80
2023-04-09T11:34:03.918Z,10.80
2023-04-09T11:39:58.726Z,11.00
2023-04-09T11:42:34.853Z,10.10
2023-04-09T11:45:06.682Z,11.30
2023-04-09T11:47:37.164Z,10.30
2023-04-09T11:50:12.562Z,10.20
2023-04-09T11:52:44.811Z,10.70
2023-04-09T11:55:28.581Z,11.50
2023-04-09T11:58:01.532Z,10.40
2023-04-09T12:00:33.383Z,10.40
2023-04-09T12:03:06.347Z,10.30
2023-04-09T12:05:39.006Z,8.70
2023-04-09T12:08:11.313Z,10.00
2023-04-09T12:10:40.530Z,10.50
2023-04-09T12:13:10.870Z,8.00
2023-04-09T12:15:44.067Z,9.90
2023-04-09T12:18:14.514Z,9.80
2023-04-09T12:21:38.921Z,9.50
2023-04-09T12:24:11.356Z,9.80
2023-04-09T12:26:43.279Z,9.80
2023-04-09T12:29:42.005Z,8.90
2023-04-09T12:32:45.458Z,9.10
2023-04-09T12:35:16.081Z,9.60
2023-04-09T12:37:45.749Z,9.30
2023-04-09T12:40:15.897Z,9.50
2023-04-09T12:42:47.016Z,9.10
2023-04-09T12:45:20.182Z,9.10
2023-04-09T12:47:50.313Z,8.30
2023-04-09T12:50:37.046Z,9.80
2023-04-09T12:53:29.114Z,9.10
2023-04-09T12:55:59.540Z,8.90
2023-04-09T12:58:29.216Z,9.00
2023-04-09T13:00:59.235Z,9.20
2023-04-09T13:03:29.626Z,9.00
2023-04-09T13:05:59.267Z,9.70
2023-04-09T13:08:29.553Z,8.90
2023-04-09T13:11:01.345Z,8.60
2023-04-09T13:13:31.165Z,8.30
2023-04-09T13:16:02.653Z,9.40
2023-04-09T13:18:32.299Z,8.70
2023-04-09T13:21:03.543Z,8.00
2023-04-09T13:23:33.185Z,7.90
2023-04-09T13:26:02.582Z,8.00
2023-04-09T13:28:36.970Z,8.40
2023-04-09T13:31:07.011Z,8.60
2023-04-09T13:33:36.727Z,8.40
2023-04-09T13:36:07.817Z,8.40
2023-04-09T13:38:42.499Z,9.30
2023-04-09T13:41:12.113Z,8.00
2023-04-09T13:43:41.337Z,8.20
2023-04-09T13:46:11.860Z,11.00
2023-04-09T13:48:45.686Z,8.50
2023-04-09T13:51:15.050Z,9.10
2023-04-09T13:53:46.516Z,8.90
2023-04-09T13:56:17.082Z,8.60
2023-04-09T13:58:47.283Z,9.40
2023-04-09T14:01:17.108Z,8.10
2023-04-09T14:03:46.727Z,9.10
2023-04-09T14:06:21.350Z,8.10
2023-04-09T14:08:51.810Z,7.90
2023-04-09T14:11:22.140Z,8.80
2023-04-09T14:13:52.579Z,9.20
2023-04-09T14:16:26.338Z,8.40
2023-04-09T14:18:57.712Z,8.00
2023-04-09T14:24:00.145Z,8.40
2023-04-09T14:26:29.738Z,8.80
2023-04-09T14:28:59.129Z,8.60
2023-04-09T14:31:28.826Z,7.80
2023-04-09T14:33:58.891Z,9.10
2023-04-09T14:36:29.197Z,8.60
2023-04-09T14:38:59.010Z,8.90
2023-04-09T14:41:35.513Z,8.70
2023-04-09T14:44:05.556Z,8.90
2023-04-09T14:46:35.038Z,8.60
2023-04-09T14:49:05.053Z,8.80
2023-04-09T14:51:37.858Z,8.80
2023-04-09T14:54:07.704Z,7.40
2023-04-09T14:56:39.070Z,8.50
2023-04-09T14:59:12.156Z,8.60
2023-04-09T15:01:48.066Z,8.20
2023-04-09T15:04:19.765Z,8.20
2023-04-09T15:06:51.756Z,8.30
2023-04-09T15:09:21.866Z,8.60
2023-04-09T15:11:54.501Z,8.40
2023-04-09T15:14:32.061Z,8.60
2023-04-09T15:17:01.769Z,7.90
2023-04-09T15:19:33.327Z,7.90
2023-04-09T15:22:04.473Z,7.90
2023-04-09T15:24:34.748Z,8.10
2023-04-09T15:27:04.499Z,8.60
2023-04-09T15:29:34.294Z,8.30
2023-04-09T15:32:04.098Z,8.50
2023-04-09T15:34:34.438Z,8.20
2023-04-09T15:37:05.038Z,8.40
2023-04-09T15:39:35.685Z,7.80
2023-04-09T15:42:07.228Z,6.80
2023-04-09T15:44:39.901Z,8.60
2023-04-09T15:47:10.402Z,8.40
2023-04-09T15:49:39.712Z,7.80
2023-04-09T15:52:09.174Z,9.20
2023-04-09T15:54:46.493Z,7.50
2023-04-09T15:57:15.948Z,8.00
2023-04-09T15:59:48.834Z,8.40
2023-04-09T16:02:17.934Z,9.20
2023-04-09T16:04:47.606Z,8.40
2023-04-09T16:07:18.026Z,8.50
2023-04-09T16:09:48.090Z,7.90
2023-04-09T16:12:19.071Z,7.10
2023-04-09T16:14:48.528Z,8.20
2023-04-09T16:17:18.024Z,7.30
2023-04-09T16:19:57.223Z,8.00
2023-04-09T16:22:54.545Z,8.10
2023-04-09T16:25:25.037Z,8.50
2023-04-09T16:28:00.942Z,8.60
2023-04-09T16:30:31.767Z,9.10
2023-04-09T16:33:01.912Z,9.60
2023-04-09T16:35:42.007Z,9.00
2023-04-09T16:38:19.144Z,9.00
2023-04-09T16:40:48.761Z,8.20
2023-04-09T16:43:18.819Z,9.40
2023-04-09T16:45:48.901Z,9.60
2023-04-09T16:48:19.259Z,8.90
2023-04-09T16:50:49.007Z,9.50
2023-04-09T16:53:18.735Z,9.00
2023-04-09T16:55:49.821Z,8.80
2023-04-09T16:58:19.307Z,8.80
2023-04-09T17:00:52.398Z,9.60
2023-04-09T17:03:23.861Z,9.80
2023-04-09T17:05:54.336Z,10.20
2023-04-09T17:08:27.408Z,9.60
2023-04-09T17:11:02.761Z,10.50
2023-04-09T17:13:36.755Z,10.20
2023-04-09T17:18:38.059Z,10.30
2023-04-09T17:21:08.081Z,10.50
2023-04-09T17:23:40.062Z,11.10
2023-04-09T17:26:09.331Z,11.60
2023-04-09T17:28:39.291Z,12.00
2023-04-09T17:31:16.328Z,12.40
2023-04-09T17:33:50.304Z,13.40
2023-04-09T17:36:21.804Z,12.90
2023-04-09T17:38:57.063Z,12.10
2023-04-09T17:41:26.717Z,11.60
2023-04-09T17:43:57.432Z,11.80
2023-04-09T17:46:26.957Z,12.10
2023-04-09T17:48:56.474Z,11.70
2023-04-09T17:51:27.590Z,11.80
2023-04-09T17:53:56.945Z,10.70
2023-04-09T17:56:27.687Z,11.60
2023-04-09T17:58:57.742Z,10.90
2023-04-09T18:01:28.482Z,11.40
2023-04-09T18:04:00.649Z,12.30
2023-04-09T18:06:31.951Z,12.00
2023-04-09T18:09:01.169Z,10.80
2023-04-09T18:11:31.967Z,11.30
2023-04-09T18:14:01.212Z,10.80
2023-04-09T18:16:32.543Z,12.30
2023-04-09T18:19:02.413Z,11.70
2023-04-09T18:21:33.149Z,11.40
2023-04-09T18:24:04.012Z,11.50
2023-04-09T18:26:34.433Z,10.80
2023-04-09T18:29:04.938Z,10.80
2023-04-09T18:31:35.371Z,11.20
2023-04-09T18:34:05.914Z,10.90
2023-04-09T18:36:43.497Z,16.70
2023-04-09T18:39:15.710Z,12.30
2023-04-09T18:41:47.143Z,11.80
2023-04-09T18:44:17.570Z,13.40
2023-04-09T18:46:50.657Z,12.60
2023-04-09T18:49:20.566Z,12.70
2023-04-09T18:51:50.799Z,11.80
2023-04-09T18:54:24.212Z,12.30
2023-04-09T18:56:53.571Z,14.10
2023-04-09T18:59:23.504Z,14.60
2023-04-09T19:01:59.155Z,18.70
2023-04-09T19:04:36.834Z,13.80
2023-04-09T19:07:06.766Z,14.00
2023-04-09T19:09:37.913Z,13.50
2023-04-09T19:12:07.468Z,12.70
2023-04-09T19:14:37.208Z,13.30
2023-04-09T19:17:07.982Z,13.30
2023-04-09T19:19:39.002Z,13.30
2023-04-09T19:22:08.588Z,12.10
2023-04-09T19:24:37.989Z,14.50
2023-04-09T19:27:12.191Z,14.20
2023-04-09T19:29:41.889Z,13.80
2023-04-09T19:32:13.796Z,14.80
2023-04-09T19:34:46.452Z,14.10
2023-04-09T19:37:19.118Z,13.10
2023-04-09T19:39:49.612Z,13.40
2023-04-09T19:42:22.450Z,13.40
2023-04-09T19:44:52.068Z,13.50
2023-04-09T19:47:23.064Z,14.10
2023-04-09T19:49:53.272Z,13.10
2023-04-09T19:52:23.953Z,13.60
2023-04-09T19:54:56.796Z,14.30
2023-04-09T19:57:26.877Z,14.00
2023-04-09T19:59:56.862Z,14.70
2023-04-09T20:02:26.750Z,13.40
2023-04-09T20:04:57.168Z,13.00
2023-04-09T20:07:29.776Z,13.60
2023-04-09T20:10:01.760Z,13.10
2023-04-09T20:12:32.607Z,13.00
2023-04-09T20:15:02.939Z,15.00
2023-04-09T20:17:33.072Z,13.70
2023-04-09T20:20:02.517Z,14.00
2023-04-09T20:22:32.395Z,14.30
2023-04-09T20:25:02.307Z,14.80
2023-04-09T20:27:32.477Z,14.10
2023-04-09T20:30:02.667Z,13.70
2023-04-09T20:32:32.926Z,13.10
2023-04-09T20:35:02.505Z,13.10
2023-04-09T20:37:38.402Z,12.60
2023-04-09T20:40:11.441Z,14.10
2023-04-09T20:42:42.668Z,14.40
2023-04-09T20:45:12.388Z,14.90
2023-04-09T20:47:42.031Z,14.70
2023-04-09T20:50:13.341Z,14.70
2023-04-09T20:52:43.853Z,14.90
2023-04-09T20:55:13.892Z,14.40
2023-04-09T20:57:44.181Z,15.40
2023-04-09T21:00:13.786Z,14.00
2023-04-09T21:05:23.301Z,13.90
2023-04-09T21:07:55.100Z,14.90
2023-04-09T21:10:24.513Z,17.20
2023-04-09T21:12:55.786Z,15.70
2023-04-09T21:15:28.725Z,14.70
2023-04-09T21:18:00.289Z,14.90
2023-04-09T21:20:34.809Z,14.30
2023-04-09T21:23:04.886Z,15.10
2023-04-09T21:25:34.737Z,15.10
2023-04-09T21:28:04.356Z,16.40
2023-04-09T21:30:35.764Z,16.30
2023-04-09T21:33:07.378Z,15.70
2023-04-09T21:35:39.138Z,14.90
2023-04-09T21:38:08.348Z,14.40
2023-04-09T21:40:39.545Z,14.70
2023-04-09T21:43:09.569Z,16.10
2023-04-09T21:45:40.528Z,11.40
2023-04-09T21:48:10.564Z,16.80
2023-04-09T21:50:40.416Z,15.50
2023-04-09T21:53:11.441Z,14.50
2023-04-09T21:55:41.285Z,14.80
2023-04-09T21:58:12.503Z,14.70
2023-04-09T22:00:42.140Z,15.50
2023-04-09T22:03:12.959Z,15.00
2023-04-09T22:05:42.581Z,15.00
2023-04-09T22:08:13.795Z,13.20
2023-04-09T22:10:43.160Z,14.20
2023-04-09T22:13:13.324Z,14.10
2023-04-09T22:15:43.250Z,14.00
2023-04-09T22:18:13.400Z,15.40
2023-04-09T22:20:43.310Z,13.50
2023-04-09T22:23:13.853Z,14.70
2023-04-09T22:25:43.258Z,15.00
2023-04-09T22:28:13.243Z,13.60
2023-04-09T22:30:47.581Z,14.30
2023-04-09T22:33:17.949Z,15.50
2023-04-09T22:35:49.186Z,14.90
2023-04-09T22:40:50.660Z,12.60
2023-04-09T22:43:20.148Z,14.50
2023-04-09T22:45:52.595Z,14.20
2023-04-09T22:48:23.368Z,14.20
2023-04-09T22:50:53.177Z,15.50
2023-04-09T22:53:22.730Z,14.30
2023-04-09T22:55:55.481Z,15.50
2023-04-09T22:58:25.383Z,15.30
2023-04-09T23:00:54.720Z,14.70
2023-04-09T23:03:25.491Z,13.10
2023-04-09T23:05:56.377Z,15.10
2023-04-09T23:08:25.853Z,15.10
2023-04-09T23:10:57.613Z,14.50
2023-04-09T23:13:26.864Z,15.10
2023-04-09T23:15:56.489Z,14.80
2023-04-09T23:18:26.023Z,14.90
2023-04-09T23:20:56.332Z,15.30
2023-04-09T23:23:25.905Z,14.30
2023-04-09T23:25:56.124Z,13.70
2023-04-09T23:28:25.596Z,13.40
2023-04-09T23:30:57.238Z,12.70
2023-04-09T23:33:27.113Z,13.20
2023-04-09T23:35:56.553Z,12.20
2023-04-09T23:38:26.148Z,13.40
2023-04-09T23:40:56.161Z,13.50
2023-04-09T23:43:26.011Z,13.80
2023-04-09T23:45:55.826Z,13.10
2023-04-09T23:48:25.074Z,12.50
2023-04-09T23:50:54.222Z,12.00
2023-04-09T23:53:23.624Z,10.50
2023-04-09T23:55:54.065Z,11.40
2023-04-09T23:58:24.021Z,13.50
